createdAt,value
2024-04-18T00:00:52.483Z,63.92
2024-04-18T00:01:52.426Z,45.23
2024-04-18T00:02:52.400Z,49.20
2024-04-18T00:03:52.500Z,55.03
2024-04-18T00:04:52.511Z,46.54
2024-04-18T00:05:52.361Z,50.10
2024-04-18T00:06:52.404Z,63.35
2024-04-18T00:07:52.344Z,47.95
2024-04-18T00:08:52.346Z,45.52
2024-04-18T00:09:52.336Z,48.82
2024-04-18T00:10:52.323Z,48.80
2024-04-18T00:11:52.310Z,47.01
2024-04-18T00:12:52.298Z,52.22
2024-04-18T00:13:52.281Z,45.98
2024-04-18T00:14:52.305Z,46.00
2024-04-18T00:15:52.317Z,48.09
2024-04-18T00:16:52.253Z,47.25
2024-04-18T00:17:52.304Z,47.16
2024-04-18T00:18:52.251Z,62.28
2024-04-18T00:19:52.221Z,53.07
2024-04-18T00:20:52.239Z,47.67
2024-04-18T00:21:52.233Z,47.79
2024-04-18T00:22:52.194Z,62.40
2024-04-18T00:23:52.197Z,62.11
2024-04-18T00:24:52.205Z,52.94
2024-04-18T00:25:52.189Z,51.26
2024-04-18T00:26:52.162Z,51.51
2024-04-18T00:27:52.225Z,45.43
2024-04-18T00:28:52.149Z,51.84
2024-04-18T00:29:52.132Z,57.36
2024-04-18T00:30:52.150Z,51.99
2024-04-18T00:31:52.125Z,44.66
2024-04-18T00:32:52.149Z,43.90
2024-04-18T00:33:52.176Z,48.44
2024-04-18T00:34:52.081Z,65.88
2024-04-18T00:35:52.072Z,49.88
2024-04-18T00:36:52.118Z,43.75
2024-04-18T00:37:52.060Z,46.73
2024-04-18T00:38:52.110Z,54.37
2024-04-18T00:39:52.180Z,57.72
2024-04-18T00:40:52.053Z,59.54
2024-04-18T00:41:52.011Z,50.53
2024-04-18T00:42:52.054Z,48.07
2024-04-18T00:43:51.992Z,48.23
2024-04-18T00:44:51.989Z,53.67
2024-04-18T00:45:52.072Z,49.40
2024-04-18T00:46:51.962Z,49.51
2024-04-18T00:47:52.012Z,64.96
2024-04-18T00:48:52.061Z,56.59
2024-04-18T00:49:51.936Z,57.14
2024-04-18T00:50:51.955Z,46.72
2024-04-18T00:51:51.922Z,52.31
2024-04-18T00:52:51.903Z,48.10
2024-04-18T00:53:51.929Z,49.45
2024-04-18T00:54:51.882Z,44.91
2024-04-18T00:55:51.871Z,47.02
2024-04-18T00:56:51.890Z,48.05
2024-04-18T00:57:51.879Z,48.90
2024-04-18T00:58:51.876Z,48.67
2024-04-18T00:59:51.866Z,44.95
2024-04-18T01:00:51.940Z,45.32
2024-04-18T01:01:51.828Z,46.69
2024-04-18T01:02:51.810Z,49.65
2024-04-18T01:03:51.919Z,45.01
2024-04-18T01:04:51.825Z,48.84
2024-04-18T01:05:51.793Z,65.19
2024-04-18T01:06:51.781Z,44.50
2024-04-18T01:07:51.773Z,47.85
2024-04-18T01:08:51.748Z,46.28
2024-04-18T01:09:51.771Z,52.58
2024-04-18T01:10:51.756Z,50.75
2024-04-18T01:11:51.747Z,49.24
2024-04-18T01:12:51.749Z,45.65
2024-04-18T01:13:51.701Z,45.93
2024-04-18T01:14:51.702Z,44.57
2024-04-18T01:15:51.717Z,45.66
2024-04-18T01:16:51.692Z,45.28
2024-04-18T01:17:51.716Z,45.45
2024-04-18T01:18:51.680Z,51.08
2024-04-18T01:19:51.647Z,44.62
2024-04-18T01:20:51.648Z,46.48
2024-04-18T01:21:51.682Z,45.50
2024-04-18T01:22:51.637Z,49.82
2024-04-18T01:23:51.617Z,54.27
2024-04-18T01:24:51.661Z,49.19
2024-04-18T01:25:51.584Z,45.83
2024-04-18T01:26:51.596Z,49.16
2024-04-18T01:27:51.633Z,56.49
2024-04-18T01:28:51.563Z,53.88
2024-04-18T01:29:51.550Z,50.74
2024-04-18T01:30:51.581Z,59.36
2024-04-18T01:31:51.533Z,51.62
2024-04-18T01:32:51.618Z,47.89
2024-04-18T01:33:51.539Z,49.06
2024-04-18T01:34:51.503Z,64.28
2024-04-18T01:35:51.499Z,45.70
2024-04-18T01:36:51.494Z,46.78
2024-04-18T01:37:51.469Z,45.43
2024-04-18T01:38:51.486Z,67.09
2024-04-18T01:39:51.506Z,52.09
2024-04-18T01:40:51.439Z,49.98
2024-04-18T01:41:51.429Z,51.49
2024-04-18T01:42:51.429Z,52.34
2024-04-18T01:43:51.432Z,48.45
2024-04-18T01:44:51.406Z,44.14
2024-04-18T01:45:51.449Z,46.02
2024-04-18T01:46:51.388Z,47.52
2024-04-18T01:47:51.422Z,50.24
2024-04-18T01:48:51.404Z,50.44
2024-04-18T01:49:51.371Z,52.97
2024-04-18T01:50:51.383Z,48.94
2024-04-18T01:51:51.401Z,45.78
2024-04-18T01:52:51.342Z,52.62
2024-04-18T01:53:51.311Z,51.43
2024-04-18T01:54:51.346Z,66.27
2024-04-18T01:55:51.294Z,54.60
2024-04-18T01:56:51.289Z,46.46
2024-04-18T01:57:51.332Z,44.86
2024-04-18T01:58:51.293Z,46.27
2024-04-18T01:59:51.260Z,49.36
2024-04-18T02:00:51.367Z,48.37
2024-04-18T02:01:52.234Z,54.46
2024-04-18T02:02:51.262Z,55.51
2024-04-18T02:03:51.251Z,48.60
2024-04-18T02:04:51.235Z,45.36
2024-04-18T02:05:51.196Z,53.16
2024-04-18T02:06:51.190Z,54.55
2024-04-18T02:07:51.203Z,54.15
2024-04-18T02:08:51.203Z,44.16
2024-04-18T02:09:51.228Z,50.79
2024-04-18T02:10:51.234Z,52.58
2024-04-18T02:11:51.132Z,46.77
2024-04-18T02:12:51.196Z,50.18
2024-04-18T02:13:51.132Z,48.23
2024-04-18T02:14:51.110Z,51.33
2024-04-18T02:15:51.203Z,50.68
2024-04-18T02:16:51.096Z,47.89
2024-04-18T02:17:51.132Z,53.38
2024-04-18T02:18:51.157Z,62.66
2024-04-18T02:19:51.070Z,57.02
2024-04-18T02:20:51.053Z,46.81
2024-04-18T02:21:51.072Z,44.47
2024-04-18T02:22:51.052Z,48.08
2024-04-18T02:23:51.050Z,49.20
2024-04-18T02:24:51.054Z,50.97
2024-04-18T02:25:51.006Z,51.09
2024-04-18T02:26:50.997Z,61.06
2024-04-18T02:27:51.052Z,48.10
2024-04-18T02:28:50.988Z,48.64
2024-04-18T02:29:50.968Z,47.23
2024-04-18T02:30:50.965Z,47.86
2024-04-18T02:31:50.983Z,49.22
2024-04-18T02:32:50.972Z,47.18
2024-04-18T02:33:51.293Z,48.97
2024-04-18T02:34:50.914Z,55.44
2024-04-18T02:35:50.916Z,49.90
2024-04-18T02:36:50.950Z,48.92
2024-04-18T02:37:50.906Z,49.25
2024-04-18T02:38:50.873Z,52.42
2024-04-18T02:39:50.934Z,50.11
2024-04-18T02:40:50.857Z,51.37
2024-04-18T02:41:50.867Z,54.25
2024-04-18T02:42:50.921Z,46.95
2024-04-18T02:43:50.833Z,50.41
2024-04-18T02:44:50.836Z,50.76
2024-04-18T02:45:50.901Z,54.35
2024-04-18T02:46:50.804Z,60.03
2024-04-18T02:47:50.969Z,51.84
2024-04-18T02:48:50.785Z,51.42
2024-04-18T02:49:50.776Z,52.22
2024-04-18T02:50:50.770Z,51.47
2024-04-18T02:51:50.807Z,52.58
2024-04-18T02:52:50.740Z,53.92
2024-04-18T02:53:50.757Z,53.78
2024-04-18T02:54:50.774Z,49.06
2024-04-18T02:55:50.716Z,52.30
2024-04-18T02:56:50.715Z,53.85
2024-04-18T02:57:50.752Z,54.61
2024-04-18T02:58:50.706Z,53.54
2024-04-18T02:59:50.679Z,53.75
2024-04-18T03:00:50.815Z,48.28
2024-04-18T03:01:50.649Z,49.98
2024-04-18T03:02:50.679Z,54.75
2024-04-18T03:03:50.857Z,56.67
2024-04-18T03:04:50.649Z,52.76
2024-04-18T03:05:50.639Z,51.41
2024-04-18T03:06:50.618Z,55.97
2024-04-18T03:07:50.632Z,54.10
2024-04-18T03:08:50.592Z,55.98
2024-04-18T03:09:50.629Z,53.44
2024-04-18T03:10:50.562Z,55.10
2024-04-18T03:11:50.591Z,57.81
2024-04-18T03:12:50.595Z,54.28
2024-04-18T03:13:50.546Z,64.91
2024-04-18T03:14:50.558Z,60.55
2024-04-18T03:15:51.588Z,58.49
2024-04-18T03:16:50.518Z,59.51
2024-04-18T03:17:50.595Z,58.23
2024-04-18T03:18:50.534Z,57.10
2024-04-18T03:19:50.492Z,56.83
2024-04-18T03:20:50.469Z,55.66
2024-04-18T03:21:50.479Z,58.49
2024-04-18T03:22:50.442Z,57.82
2024-04-18T03:23:50.465Z,55.73
2024-04-18T03:24:50.487Z,57.03
2024-04-18T03:25:50.422Z,56.39
2024-04-18T03:26:50.415Z,55.12
2024-04-18T03:27:50.442Z,64.43
2024-04-18T03:28:50.384Z,59.42
2024-04-18T03:29:50.373Z,57.43
2024-04-18T03:30:50.424Z,58.43
2024-04-18T03:31:50.393Z,65.58
2024-04-18T03:32:50.399Z,57.52
2024-04-18T03:33:50.391Z,57.00
2024-04-18T03:34:50.351Z,65.15
2024-04-18T03:35:50.313Z,59.86
2024-04-18T03:36:50.358Z,60.69
2024-04-18T03:37:50.303Z,62.04
2024-04-18T03:38:50.299Z,63.53
2024-04-18T03:39:50.380Z,63.94
2024-04-18T03:40:50.282Z,59.97
2024-04-18T03:41:50.280Z,58.52
2024-04-18T03:42:50.264Z,67.19
2024-04-18T03:43:50.232Z,59.56
2024-04-18T03:44:50.229Z,58.86
2024-04-18T03:45:50.322Z,59.88
2024-04-18T03:46:50.204Z,58.76
2024-04-18T03:47:50.230Z,57.66
2024-04-18T03:48:50.214Z,58.29
2024-04-18T03:49:50.196Z,59.74
2024-04-18T03:50:50.174Z,59.89
2024-04-18T03:51:50.283Z,58.61
2024-04-18T03:52:50.143Z,55.59
2024-04-18T03:53:50.140Z,59.46
2024-04-18T03:55:00.717Z,60.33
2024-04-18T03:55:52.118Z,57.34
2024-04-18T03:56:50.103Z,58.87
2024-04-18T03:57:50.132Z,60.14
2024-04-18T03:58:50.090Z,59.40
2024-04-18T03:59:50.076Z,60.53
2024-04-18T04:00:50.168Z,60.08
2024-04-18T04:01:50.089Z,59.95
2024-04-18T04:02:50.049Z,56.76
2024-04-18T04:03:50.076Z,57.42
2024-04-18T04:04:50.024Z,58.60
2024-04-18T04:05:50.037Z,58.04
2024-04-18T04:06:50.013Z,60.09
2024-04-18T04:07:49.995Z,58.82
2024-04-18T04:08:49.982Z,55.39
2024-04-18T04:09:50.032Z,58.49
2024-04-18T04:10:49.976Z,60.63
2024-04-18T04:11:49.953Z,57.66
2024-04-18T04:12:49.989Z,58.95
2024-04-18T04:13:49.930Z,59.08
2024-04-18T04:14:49.942Z,65.87
2024-04-18T04:15:49.968Z,58.94
2024-04-18T04:16:49.907Z,56.32
2024-04-18T04:17:49.935Z,58.30
2024-04-18T04:18:49.982Z,59.22
2024-04-18T04:19:49.886Z,61.06
2024-04-18T04:20:49.889Z,59.08
2024-04-18T04:21:49.966Z,59.12
2024-04-18T04:22:49.854Z,59.06
2024-04-18T04:23:49.879Z,57.04
2024-04-18T04:24:49.918Z,58.29
2024-04-18T04:25:49.848Z,59.68
2024-04-18T04:26:49.857Z,55.06
2024-04-18T04:27:49.914Z,59.18
2024-04-18T04:28:49.823Z,59.94
2024-04-18T04:29:49.780Z,60.66
2024-04-18T04:30:49.885Z,58.76
2024-04-18T04:31:49.923Z,58.99
2024-04-18T04:32:49.765Z,60.69
2024-04-18T04:33:49.867Z,62.58
2024-04-18T04:34:49.732Z,62.10
2024-04-18T04:35:49.785Z,60.55
2024-04-18T04:36:49.814Z,60.34
2024-04-18T04:37:49.700Z,60.48
2024-04-18T04:38:49.692Z,60.49
2024-04-18T04:39:49.730Z,59.58
2024-04-18T04:40:49.690Z,60.52
2024-04-18T04:41:49.671Z,57.95
2024-04-18T04:42:49.723Z,59.78
2024-04-18T04:43:49.652Z,65.99
2024-04-18T04:44:49.672Z,57.34
2024-04-18T04:45:49.673Z,62.22
2024-04-18T04:46:49.638Z,58.57
2024-04-18T04:47:49.681Z,55.67
2024-04-18T04:48:49.780Z,57.38
2024-04-18T04:49:49.599Z,60.71
2024-04-18T04:50:49.576Z,60.41
2024-04-18T04:51:49.661Z,59.79
2024-04-18T04:52:49.558Z,59.05
2024-04-18T04:53:52.044Z,59.44
2024-04-18T04:54:49.571Z,60.28
2024-04-18T04:55:49.546Z,61.43
2024-04-18T04:56:49.527Z,60.60
2024-04-18T04:57:49.563Z,60.22
2024-04-18T04:58:49.505Z,60.03
2024-04-18T04:59:49.497Z,60.20
2024-04-18T05:00:49.615Z,60.69
2024-04-18T05:01:49.532Z,60.72
2024-04-18T05:02:50.090Z,60.87
2024-04-18T05:03:50.591Z,60.76
2024-04-18T05:04:49.438Z,60.83
2024-04-18T05:05:49.430Z,64.43
2024-04-18T05:06:49.532Z,59.78
2024-04-18T05:07:51.373Z,58.18
2024-04-18T05:08:49.409Z,59.43
2024-04-18T05:09:49.466Z,61.21
2024-04-18T05:10:49.413Z,62.01
2024-04-18T05:11:49.377Z,61.75
2024-04-18T05:12:49.432Z,63.51
2024-04-18T05:13:49.347Z,60.47
2024-04-18T05:14:49.345Z,60.67
2024-04-18T05:15:49.367Z,60.21
2024-04-18T05:16:49.476Z,59.93
2024-04-18T05:17:49.325Z,60.44
2024-04-18T05:18:49.400Z,62.36
2024-04-18T05:19:49.302Z,60.12
2024-04-18T05:20:49.284Z,59.92
2024-04-18T05:21:49.368Z,59.92
2024-04-18T05:22:49.297Z,60.38
2024-04-18T05:23:49.281Z,65.03
2024-04-18T05:24:49.450Z,61.04
2024-04-18T05:25:49.256Z,64.37
2024-04-18T05:26:49.234Z,61.43
2024-04-18T05:27:49.330Z,61.89
2024-04-18T05:28:49.235Z,59.90
2024-04-18T05:29:49.210Z,60.18
2024-04-18T05:30:49.216Z,60.52
2024-04-18T05:31:49.180Z,60.11
2024-04-18T05:32:49.373Z,60.99
2024-04-18T05:33:49.190Z,62.96
2024-04-18T05:34:49.145Z,62.52
2024-04-18T05:35:49.146Z,59.83
2024-04-18T05:36:49.357Z,60.40
2024-04-18T05:37:49.115Z,60.69
2024-04-18T05:38:49.144Z,60.86
2024-04-18T05:39:49.108Z,66.82
2024-04-18T05:40:49.094Z,62.28
2024-04-18T05:41:49.080Z,60.87
2024-04-18T05:42:49.225Z,60.82
2024-04-18T05:43:49.057Z,61.83
2024-04-18T05:44:49.082Z,60.87
2024-04-18T05:45:49.099Z,60.62
2024-04-18T05:46:49.079Z,61.71
2024-04-18T05:47:49.038Z,61.44
2024-04-18T05:48:49.098Z,60.57
2024-04-18T05:49:49.021Z,62.32
2024-04-18T05:50:48.999Z,60.75
2024-04-18T05:51:49.083Z,59.87
2024-04-18T05:52:48.984Z,61.18
2024-04-18T05:53:48.993Z,59.98
2024-04-18T05:54:48.992Z,59.99
2024-04-18T05:55:48.976Z,59.58
2024-04-18T05:56:48.936Z,60.81
2024-04-18T05:57:50.045Z,66.29
2024-04-18T05:58:48.936Z,59.89
2024-04-18T05:59:48.904Z,60.92
2024-04-18T06:00:48.994Z,59.56
2024-04-18T06:01:48.895Z,59.19
2024-04-18T06:02:48.879Z,63.98
2024-04-18T06:03:49.917Z,59.07
2024-04-18T06:04:48.941Z,60.60
2024-04-18T06:05:48.858Z,60.02
2024-04-18T06:06:48.890Z,60.32
2024-04-18T06:07:48.822Z,58.58
2024-04-18T06:08:48.834Z,59.01
2024-04-18T06:09:48.896Z,59.92
2024-04-18T06:10:48.916Z,68.42
2024-04-18T06:11:48.799Z,59.80
2024-04-18T06:12:48.901Z,59.64
2024-04-18T06:13:48.774Z,60.05
2024-04-18T06:14:48.770Z,60.52
2024-04-18T06:15:49.662Z,63.54
2024-04-18T06:16:48.767Z,60.74
2024-04-18T06:17:48.764Z,61.72
2024-04-18T06:18:48.792Z,59.91
2024-04-18T06:19:48.714Z,61.21
2024-04-18T06:20:48.691Z,58.92
2024-04-18T06:21:48.777Z,60.27
2024-04-18T06:22:48.683Z,58.50
2024-04-18T06:23:48.702Z,59.68
2024-04-18T06:24:49.240Z,58.70
2024-04-18T06:25:49.678Z,63.85
2024-04-18T06:26:48.655Z,57.62
2024-04-18T06:27:48.789Z,58.68
2024-04-18T06:28:48.668Z,59.87
2024-04-18T06:29:48.614Z,61.32
2024-04-18T06:30:48.692Z,59.79
2024-04-18T06:31:48.757Z,59.08
2024-04-18T06:32:48.621Z,61.02
2024-04-18T06:33:48.780Z,59.23
2024-04-18T06:34:48.573Z,58.90
2024-04-18T06:35:48.555Z,60.21
2024-04-18T06:36:48.582Z,59.29
2024-04-18T06:37:48.565Z,59.78
2024-04-18T06:38:48.521Z,59.59
2024-04-18T06:39:48.523Z,60.26
2024-04-18T06:40:48.512Z,58.55
2024-04-18T06:41:48.527Z,59.64
2024-04-18T06:42:48.531Z,59.64
2024-04-18T06:43:48.494Z,59.54
2024-04-18T06:44:48.471Z,61.80
2024-04-18T06:45:48.568Z,62.65
2024-04-18T06:46:53.278Z,60.80
2024-04-18T06:47:50.644Z,60.51
2024-04-18T06:48:48.497Z,60.82
2024-04-18T06:49:48.436Z,60.68
2024-04-18T06:50:48.416Z,59.90
2024-04-18T06:51:48.464Z,59.72
2024-04-18T06:52:48.411Z,58.06
2024-04-18T06:53:48.375Z,58.97
2024-04-18T06:54:48.414Z,59.98
2024-04-18T06:55:48.359Z,59.21
2024-04-18T06:56:48.355Z,61.39
2024-04-18T06:57:48.530Z,60.71
2024-04-18T06:58:48.326Z,61.37
2024-04-18T06:59:48.326Z,61.48
2024-04-18T07:00:48.622Z,60.59
2024-04-18T07:01:48.309Z,61.92
2024-04-18T07:02:48.377Z,61.09
2024-04-18T07:03:48.406Z,62.11
2024-04-18T07:04:48.381Z,60.93
2024-04-18T07:05:48.270Z,60.46
2024-04-18T07:06:48.276Z,58.46
2024-04-18T07:07:48.275Z,59.95
2024-04-18T07:08:48.238Z,58.80
2024-04-18T07:09:49.717Z,58.62
2024-04-18T07:10:49.213Z,59.66
2024-04-18T07:11:48.282Z,59.34
2024-04-18T07:12:48.294Z,58.33
2024-04-18T07:13:48.193Z,60.15
2024-04-18T07:14:48.183Z,62.17
2024-04-18T07:15:48.233Z,60.83
2024-04-18T07:16:48.164Z,62.29
2024-04-18T07:17:48.211Z,61.16
2024-04-18T07:18:48.334Z,59.81
2024-04-18T07:19:48.142Z,59.13
2024-04-18T07:20:48.120Z,60.08
2024-04-18T07:21:48.155Z,60.50
2024-04-18T07:22:48.104Z,60.63
2024-04-18T07:23:48.111Z,60.92
2024-04-18T07:24:48.076Z,60.92
2024-04-18T07:25:48.112Z,59.47
2024-04-18T07:26:48.126Z,60.70
2024-04-18T07:27:48.070Z,61.66
2024-04-18T07:28:49.078Z,60.74
2024-04-18T07:29:48.027Z,62.71
2024-04-18T07:30:48.091Z,59.88
2024-04-18T07:31:48.010Z,60.27
2024-04-18T07:32:48.250Z,61.99
2024-04-18T07:33:48.054Z,61.27
2024-04-18T07:34:47.990Z,65.14
2024-04-18T07:35:47.968Z,66.75
2024-04-18T07:36:48.046Z,64.10
2024-04-18T07:37:47.947Z,60.40
2024-04-18T07:38:47.930Z,60.09
2024-04-18T07:39:47.928Z,59.60
2024-04-18T07:40:47.927Z,59.75
2024-04-18T07:41:47.945Z,60.96
2024-04-18T07:42:47.935Z,59.94
2024-04-18T07:43:47.887Z,60.74
2024-04-18T07:44:47.898Z,60.78
2024-04-18T07:45:47.935Z,60.55
2024-04-18T07:46:47.851Z,60.96
2024-04-18T07:47:47.900Z,62.36
2024-04-18T07:48:47.923Z,60.75
2024-04-18T07:49:49.476Z,60.70
2024-04-18T07:50:48.831Z,60.62
2024-04-18T07:51:47.820Z,60.46
2024-04-18T07:52:56.570Z,60.42
2024-04-18T07:53:48.791Z,60.05
2024-04-18T07:54:47.809Z,60.65
2024-04-18T07:55:47.771Z,61.40
2024-04-18T07:56:48.106Z,61.19
2024-04-18T07:57:48.184Z,61.15
2024-04-18T07:58:48.227Z,62.51
2024-04-18T07:59:48.535Z,61.09
2024-04-18T08:00:48.730Z,59.94
2024-04-18T08:01:49.110Z,59.49
2024-04-18T08:02:50.795Z,59.67
2024-04-18T08:03:56.810Z,58.36
2024-04-18T08:04:55.564Z,59.73
2024-04-18T08:05:51.798Z,58.87
2024-04-18T08:06:50.347Z,58.98
2024-04-18T08:07:49.988Z,58.65
2024-04-18T08:08:51.456Z,56.51
2024-04-18T08:09:51.164Z,58.31
2024-04-18T08:11:08.198Z,59.91
2024-04-18T08:12:51.340Z,55.88
2024-04-18T08:13:52.468Z,58.15
2024-04-18T08:14:51.013Z,54.28
2024-04-18T08:16:48.623Z,58.76
2024-04-18T08:17:47.586Z,58.20
2024-04-18T08:18:47.548Z,59.96
2024-04-18T08:19:47.541Z,58.10
2024-04-18T08:20:47.530Z,61.66
2024-04-18T08:21:47.517Z,62.64
2024-04-18T08:22:47.531Z,58.40
2024-04-18T08:23:47.493Z,59.36
2024-04-18T08:24:47.488Z,59.98
2024-04-18T08:25:47.476Z,60.83
2024-04-18T08:26:47.470Z,60.99
2024-04-18T08:27:47.481Z,58.55
2024-04-18T08:28:47.457Z,61.74
2024-04-18T08:29:47.451Z,59.01
2024-04-18T08:30:47.527Z,58.54
2024-04-18T08:31:47.446Z,59.73
2024-04-18T08:32:47.452Z,58.58
2024-04-18T08:33:54.368Z,58.93
2024-04-18T08:34:48.845Z,61.94
2024-04-18T08:35:47.382Z,62.25
2024-04-18T08:36:47.370Z,61.06
2024-04-18T08:37:47.392Z,57.50
2024-04-18T08:38:47.371Z,59.19
2024-04-18T08:39:48.083Z,66.26
2024-04-18T08:40:47.344Z,57.79
2024-04-18T08:41:47.643Z,58.53
2024-04-18T08:42:48.610Z,59.76
2024-04-18T08:43:52.089Z,58.79
2024-04-18T08:45:19.279Z,59.38
2024-04-18T08:45:47.327Z,59.70
2024-04-18T08:46:47.294Z,58.29
2024-04-18T08:47:47.410Z,58.52
2024-04-18T08:48:47.464Z,58.06
2024-04-18T08:49:47.329Z,58.31
2024-04-18T08:50:48.291Z,57.67
2024-04-18T08:51:47.307Z,60.02
2024-04-18T08:52:47.290Z,59.23
2024-04-18T08:53:47.253Z,56.24
2024-04-18T08:54:47.520Z,58.47
2024-04-18T08:55:47.275Z,60.33
2024-04-18T08:56:47.222Z,57.44
2024-04-18T08:57:47.210Z,55.89
2024-04-18T08:58:47.207Z,56.00
2024-04-18T08:59:47.201Z,58.35
2024-04-18T09:00:47.233Z,57.99
2024-04-18T09:01:47.170Z,56.58
2024-04-18T09:02:47.239Z,58.08
2024-04-18T09:03:48.183Z,57.24
2024-04-18T09:04:47.263Z,57.30
2024-04-18T09:05:47.119Z,57.73
2024-04-18T09:06:47.147Z,58.35
2024-04-18T09:07:47.144Z,58.10
2024-04-18T09:08:47.104Z,57.84
2024-04-18T09:09:47.200Z,56.90
2024-04-18T09:10:47.139Z,57.36
2024-04-18T09:11:47.071Z,56.29
2024-04-18T09:12:47.066Z,58.12
2024-04-18T09:13:47.041Z,58.86
2024-04-18T09:14:47.050Z,57.99
2024-04-18T09:15:47.045Z,57.38
2024-04-18T09:16:47.047Z,56.98
2024-04-18T09:17:47.114Z,57.51
2024-04-18T09:18:47.146Z,57.03
2024-04-18T09:19:46.977Z,56.40
2024-04-18T09:20:47.011Z,57.63
2024-04-18T09:21:46.983Z,61.63
2024-04-18T09:22:46.932Z,59.49
2024-04-18T09:23:46.949Z,58.92
2024-04-18T09:24:46.959Z,58.89
2024-04-18T09:25:46.911Z,58.13
2024-04-18T09:26:46.914Z,58.16
2024-04-18T09:27:46.912Z,59.24
2024-04-18T09:28:46.900Z,58.91
2024-04-18T09:29:46.877Z,58.08
2024-04-18T09:30:46.882Z,58.02
2024-04-18T09:31:46.895Z,57.76
2024-04-18T09:32:46.877Z,57.62
2024-04-18T09:33:47.019Z,57.22
2024-04-18T09:34:46.949Z,58.10
2024-04-18T09:35:46.814Z,58.69
2024-04-18T09:36:46.856Z,60.76
2024-04-18T09:37:53.159Z,58.11
2024-04-18T09:38:48.772Z,60.95
2024-04-18T09:39:46.826Z,57.39
2024-04-18T09:40:46.764Z,56.66
2024-04-18T09:41:46.745Z,57.73
2024-04-18T09:42:46.810Z,59.24
2024-04-18T09:43:46.744Z,59.04
2024-04-18T09:44:46.808Z,59.57
2024-04-18T09:45:46.733Z,58.60
2024-04-18T09:46:46.760Z,60.04
2024-04-18T09:47:47.555Z,59.15
2024-04-18T09:48:47.026Z,58.47
2024-04-18T09:49:46.686Z,60.52
2024-04-18T09:50:46.681Z,59.87
2024-04-18T09:51:46.725Z,59.37
2024-04-18T09:52:46.690Z,60.39
2024-04-18T09:53:46.658Z,66.54
2024-04-18T09:54:47.811Z,59.82
2024-04-18T09:55:46.669Z,58.03
2024-04-18T09:56:46.692Z,60.71
2024-04-18T09:57:46.601Z,59.89
2024-04-18T09:58:46.658Z,59.80
2024-04-18T09:59:46.582Z,58.46
2024-04-18T10:00:46.600Z,60.15
2024-04-18T10:01:46.625Z,59.01
2024-04-18T10:02:46.623Z,66.02
2024-04-18T10:03:46.665Z,58.02
2024-04-18T10:04:46.696Z,58.18
2024-04-18T10:05:46.571Z,58.31
2024-04-18T10:06:46.562Z,58.82
2024-04-18T10:07:46.555Z,60.87
2024-04-18T10:08:46.524Z,61.07
2024-04-18T10:09:46.531Z,59.71
2024-04-18T10:10:46.608Z,58.74
2024-04-18T10:11:46.505Z,60.59
2024-04-18T10:12:46.552Z,60.16
2024-04-18T10:13:46.457Z,60.12
2024-04-18T10:14:46.508Z,61.44
2024-04-18T10:15:46.451Z,63.45
2024-04-18T10:16:46.421Z,60.74
2024-04-18T10:17:46.493Z,59.47
2024-04-18T10:18:47.806Z,62.30
2024-04-18T10:19:46.421Z,61.62
2024-04-18T10:20:46.384Z,64.16
2024-04-18T10:22:48.301Z,61.18
2024-04-18T10:23:46.364Z,59.47
2024-04-18T10:24:46.367Z,59.75
2024-04-18T10:25:46.383Z,60.58
2024-04-18T10:26:46.379Z,60.47
2024-04-18T10:27:46.413Z,60.40
2024-04-18T10:28:46.351Z,59.67
2024-04-18T10:29:46.316Z,58.26
2024-04-18T10:30:46.327Z,59.38
2024-04-18T10:31:46.362Z,60.10
2024-04-18T10:32:46.409Z,60.15
2024-04-18T10:33:46.428Z,58.97
2024-04-18T10:34:46.274Z,57.71
2024-04-18T10:35:46.272Z,58.05
2024-04-18T10:36:46.357Z,58.76
2024-04-18T10:37:46.235Z,59.78
2024-04-18T10:38:46.275Z,62.06
2024-04-18T10:39:46.261Z,59.61
2024-04-18T10:40:46.282Z,59.59
2024-04-18T10:41:46.229Z,61.00
2024-04-18T10:42:46.293Z,61.70
2024-04-18T10:43:46.221Z,59.79
2024-04-18T10:44:46.178Z,60.38
2024-04-18T10:45:46.221Z,59.07
2024-04-18T10:46:46.124Z,62.97
2024-04-18T10:47:46.227Z,59.55
2024-04-18T10:48:46.297Z,59.52
2024-04-18T10:49:46.135Z,59.76
2024-04-18T10:50:46.199Z,59.90
2024-04-18T10:51:46.101Z,60.42
2024-04-18T10:52:46.099Z,59.28
2024-04-18T10:53:46.137Z,59.93
2024-04-18T10:54:46.155Z,59.59
2024-04-18T10:55:46.113Z,62.02
2024-04-18T10:56:46.091Z,59.86
2024-04-18T10:57:46.082Z,61.91
2024-04-18T10:58:46.046Z,58.63
2024-04-18T10:59:46.062Z,60.17
2024-04-18T11:00:46.114Z,60.42
2024-04-18T11:01:46.092Z,59.72
2024-04-18T11:02:46.106Z,58.32
2024-04-18T11:03:46.182Z,59.90
2024-04-18T11:04:46.114Z,58.93
2024-04-18T11:05:45.991Z,59.31
2024-04-18T11:06:46.030Z,58.77
2024-04-18T11:07:45.950Z,59.33
2024-04-18T11:08:45.956Z,59.13
2024-04-18T11:09:45.941Z,59.88
2024-04-18T11:10:45.926Z,61.52
2024-04-18T11:11:45.895Z,61.69
2024-04-18T11:12:45.888Z,59.41
2024-04-18T11:13:45.914Z,60.42
2024-04-18T11:14:46.007Z,59.84
2024-04-18T11:15:45.903Z,57.71
2024-04-18T11:16:45.879Z,58.98
2024-04-18T11:17:45.961Z,59.93
2024-04-18T11:18:46.007Z,60.49
2024-04-18T11:19:45.842Z,59.41
2024-04-18T11:20:45.834Z,57.66
2024-04-18T11:21:45.814Z,58.51
2024-04-18T11:22:48.075Z,58.69
2024-04-18T11:23:51.539Z,59.96
2024-04-18T11:24:46.879Z,57.66
2024-04-18T11:25:45.757Z,60.56
2024-04-18T11:26:45.739Z,61.66
2024-04-18T11:27:45.749Z,64.24
2024-04-18T11:28:45.732Z,76.65
2024-04-18T11:29:45.726Z,64.72
2024-04-18T11:30:45.756Z,60.74
2024-04-18T11:31:45.730Z,56.81
2024-04-18T11:32:45.794Z,58.32
2024-04-18T11:33:45.733Z,58.26
2024-04-18T11:34:47.153Z,58.31
2024-04-18T11:35:45.664Z,57.51
2024-04-18T11:36:45.714Z,60.57
2024-04-18T11:37:45.614Z,60.68
2024-04-18T11:38:45.616Z,59.31
2024-04-18T11:39:45.667Z,58.62
2024-04-18T11:40:45.624Z,59.56
2024-04-18T11:41:45.616Z,59.05
2024-04-18T11:42:45.690Z,58.69
2024-04-18T11:43:45.571Z,58.68
2024-04-18T11:44:45.570Z,56.76
2024-04-18T11:45:45.580Z,59.19
2024-04-18T11:46:45.569Z,57.42
2024-04-18T11:47:45.614Z,58.17
2024-04-18T11:48:45.610Z,58.31
2024-04-18T11:49:45.522Z,57.90
2024-04-18T11:50:45.489Z,57.05
2024-04-18T11:51:45.512Z,58.19
2024-04-18T11:52:45.470Z,55.23
2024-04-18T11:53:45.498Z,55.42
2024-04-18T11:54:45.475Z,57.25
2024-04-18T11:55:45.450Z,57.14
2024-04-18T11:56:45.465Z,57.66
2024-04-18T11:57:45.437Z,58.07
2024-04-18T11:58:45.446Z,59.01
2024-04-18T11:59:45.434Z,60.82
2024-04-18T12:00:45.506Z,58.18
2024-04-18T12:01:45.408Z,58.60
2024-04-18T12:02:45.385Z,55.24
2024-04-18T12:03:45.442Z,56.85
2024-04-18T12:04:45.387Z,58.18
2024-04-18T12:05:45.474Z,58.42
2024-04-18T12:06:45.442Z,55.51
2024-04-18T12:07:45.387Z,58.12
2024-04-18T12:08:46.312Z,57.75
2024-04-18T12:09:45.353Z,57.48
2024-04-18T12:10:45.322Z,57.92
2024-04-18T12:11:45.391Z,60.07
2024-04-18T12:12:45.318Z,58.63
2024-04-18T12:13:45.318Z,59.15
2024-04-18T12:14:45.291Z,58.92
2024-04-18T12:15:45.396Z,60.77
2024-04-18T12:16:45.300Z,58.51
2024-04-18T12:17:45.278Z,60.23
2024-04-18T12:18:45.324Z,59.41
2024-04-18T12:19:45.425Z,58.97
2024-04-18T12:20:45.250Z,57.42
2024-04-18T12:21:45.244Z,58.77
2024-04-18T12:22:45.201Z,59.47
2024-04-18T12:23:45.174Z,59.26
2024-04-18T12:24:45.225Z,58.56
2024-04-18T12:25:45.180Z,63.80
2024-04-18T12:26:45.168Z,57.94
2024-04-18T12:27:45.173Z,58.27
2024-04-18T12:28:45.142Z,61.19
2024-04-18T12:29:45.143Z,58.56
2024-04-18T12:30:45.279Z,58.36
2024-04-18T12:31:45.156Z,56.69
2024-04-18T12:32:45.184Z,60.94
2024-04-18T12:33:45.154Z,58.07
2024-04-18T12:34:45.073Z,58.24
2024-04-18T12:35:45.131Z,60.07
2024-04-18T12:36:45.131Z,57.68
2024-04-18T12:37:45.103Z,58.89
2024-04-18T12:38:45.066Z,58.66
2024-04-18T12:39:45.084Z,58.13
2024-04-18T12:40:45.298Z,60.40
2024-04-18T12:41:45.008Z,60.16
2024-04-18T12:42:45.058Z,60.19
2024-04-18T12:43:44.997Z,58.88
2024-04-18T12:44:45.015Z,59.98
2024-04-18T12:45:45.031Z,60.41
2024-04-18T12:46:45.075Z,62.09
2024-04-18T12:47:45.138Z,63.52
2024-04-18T12:48:45.110Z,60.23
2024-04-18T12:49:45.126Z,60.87
2024-04-18T12:50:45.053Z,60.52
2024-04-18T12:51:45.094Z,60.78
2024-04-18T12:52:44.964Z,59.11
2024-04-18T12:53:44.947Z,59.43
2024-04-18T12:54:44.953Z,59.88
2024-04-18T12:55:45.081Z,60.97